Accueil
METAR-TAF:

METAR-TAF

Aéroports :

Aéroport Sandro-Pertini de Turin Caselle

Turin, Italie

latitude: 45-13N, longitude: 007-39E, altitude: 301 m

Observation

Le bulletin a été fait il y a 40 minutes, à 07:50 UTC
Vent 2 kt de direction variable
Température 3°C
Humidité 93%
Pression 1013 hPa
Visibilité 10 km ou plus
Nuages fragmentés à une hauteur de 8000 ft

METAR: LIMF 210750Z VRB02KT 9999 BKN080 03/02 Q1013

Heure: 09:30 (08:30 UTC)

Prévision

Le bulletin a été fait il y a 3 heures et 30 minutes, à 05:00 UTC
Prévision valable du 21 à 06 UTC au 22 à 06 UTC
Vent 5 kt de direction variable
Visibilité: 7000 m
Nuages épars à une hauteur de 5000 ft
Temporairement
du 21 à 09 UTC au 21 à 16 UTC
pluie

TAF: LIMF 210500Z 2106/2206 VRB05KT 7000 SCT050 TEMPO 2109/2116 RA

Observations et prévisions météorologiques de plus de 4000 aéroports (messages METAR et TAF).

Les stations disponibles sont représentées par des disques jaunes et rouges sur la carte.

Passer la souris dessus pour voir le nom de la station.

Cliquer dessus pour voir les observations et prévisions météorologiques.

Pour changer de carte: cliquez sur les boutons verts avec une croix noire pour zoomer, sur le bouton vert avec un tiret pour effectuer un zoom arrière, ou sur les flèches vertes pour les cartes adjacentes.


METAR-TAF: